TimeCDT,TemperatureF,Dew PointF,Humidity,Sea Level PressureIn,VisibilityMPH,Wind Direction,Wind SpeedMPH,Gust SpeedMPH,PrecipitationIn,Events,Conditions,WindDirDegrees,DateUTC
12:15 AM,37.6,25.2,61,30.31,10.0,ESE,6.9,-,N/A,,Clear,120,2013-03-27 05:15:00
12:35 AM,36.1,25.3,65,30.31,10.0,SE,6.9,-,N/A,,Clear,130,2013-03-27 05:35:00
12:55 AM,37.0,25.7,64,30.30,10.0,SE,6.9,-,N/A,,Clear,130,2013-03-27 05:55:00
1:15 AM,37.0,25.7,64,30.30,10.0,ESE,5.8,-,N/A,,Clear,120,2013-03-27 06:15:00
1:35 AM,35.8,25.3,66,30.30,10.0,SE,5.8,-,N/A,,Clear,130,2013-03-27 06:35:00
1:55 AM,35.8,25.7,67,30.29,10.0,SE,5.8,-,N/A,,Clear,130,2013-03-27 06:55:00
2:15 AM,35.8,25.7,67,30.29,10.0,SE,5.8,-,N/A,,Clear,130,2013-03-27 07:15:00
2:35 AM,35.8,27.0,70,30.28,10.0,SE,5.8,-,N/A,,Clear,130,2013-03-27 07:35:00
2:55 AM,35.8,27.3,71,30.27,10.0,ESE,6.9,-,N/A,,Clear,120,2013-03-27 07:55:00
3:15 AM,35.8,27.5,72,30.27,10.0,ESE,5.8,-,N/A,,Clear,120,2013-03-27 08:15:00
3:35 AM,35.8,27.5,72,30.26,10.0,ESE,5.8,-,N/A,,Clear,120,2013-03-27 08:35:00
3:55 AM,35.8,27.5,72,30.26,10.0,SE,3.5,-,N/A,,Clear,140,2013-03-27 08:55:00
4:15 AM,35.6,27.3,72,30.25,10.0,ESE,3.5,-,N/A,,Clear,120,2013-03-27 09:15:00
4:35 AM,35.8,26.2,68,30.25,10.0,ESE,3.5,-,N/A,,Clear,110,2013-03-27 09:35:00
4:55 AM,35.8,25.3,66,30.26,10.0,Calm,Calm,-,N/A,,Clear,0,2013-03-27 09:55:00
5:15 AM,35.8,25.3,66,30.26,10.0,Calm,Calm,-,N/A,,Clear,0,2013-03-27 10:15:00
5:35 AM,35.8,25.9,67,30.27,10.0,South,4.6,-,N/A,,Clear,170,2013-03-27 10:35:00
5:55 AM,35.4,25.7,68,30.27,10.0,Calm,Calm,-,N/A,,Clear,0,2013-03-27 10:55:00
6:15 AM,35.8,25.7,67,30.28,10.0,Calm,Calm,-,N/A,,Clear,0,2013-03-27 11:15:00
6:35 AM,35.8,25.5,66,30.28,10.0,Calm,Calm,-,N/A,,Clear,0,2013-03-27 11:35:00
6:55 AM,35.6,25.5,67,30.29,10.0,Calm,Calm,-,N/A,,Clear,0,2013-03-27 11:55:00
7:15 AM,33.3,24.8,71,30.29,10.0,SE,5.8,-,N/A,,Clear,140,2013-03-27 12:15:00
7:35 AM,35.4,27.0,71,30.28,10.0,SSE,5.8,-,N/A,,Clear,150,2013-03-27 12:35:00
7:55 AM,35.8,26.8,70,30.27,10.0,SSE,9.2,-,N/A,,Clear,150,2013-03-27 12:55:00
8:15 AM,37.0,28.4,71,30.28,10.0,SE,6.9,-,N/A,,Clear,140,2013-03-27 13:15:00
8:35 AM,39.2,29.3,68,30.28,10.0,SE,8.1,-,N/A,,Clear,140,2013-03-27 13:35:00
8:55 AM,45.3,31.3,58,30.28,10.0,SSE,15.0,-,N/A,,Clear,150,2013-03-27 13:55:00
9:15 AM,45.7,29.1,52,30.28,10.0,SSE,15.0,23.0,N/A,,Clear,160,2013-03-27 14:15:00
9:35 AM,48.2,29.3,48,30.28,10.0,SSE,17.3,25.3,N/A,,Clear,160,2013-03-27 14:35:00
9:55 AM,50.9,29.3,43,30.29,10.0,South,16.1,-,N/A,,Clear,170,2013-03-27 14:55:00
10:15 AM,51.4,27.9,40,30.28,10.0,SSE,17.3,23.0,N/A,,Clear,160,2013-03-27 15:15:00
10:35 AM,53.2,27.7,37,30.27,10.0,SSE,18.4,26.5,N/A,,Clear,160,2013-03-27 15:35:00
10:55 AM,55.8,29.1,36,30.27,10.0,SSE,16.1,-,N/A,,Clear,160,2013-03-27 15:55:00
11:15 AM,55.8,27.0,33,30.26,10.0,South,20.7,26.5,N/A,,Clear,170,2013-03-27 16:15:00
11:35 AM,57.2,28.8,34,30.25,10.0,SSE,18.4,-,N/A,,Clear,150,2013-03-27 16:35:00
11:55 AM,58.3,26.6,30,30.25,10.0,SSE,24.2,32.2,N/A,,Clear,160,2013-03-27 16:55:00
12:15 PM,60.8,29.1,30,30.24,10.0,SSE,20.7,26.5,N/A,,Clear,150,2013-03-27 17:15:00
12:35 PM,61.9,30.9,31,30.23,10.0,South,23.0,28.8,N/A,,Clear,170,2013-03-27 17:35:00
12:55 PM,63.1,32.2,31,30.23,10.0,SSE,21.9,29.9,N/A,,Clear,160,2013-03-27 17:55:00
1:15 PM,63.1,32.2,31,30.22,10.0,South,21.9,32.2,N/A,,Clear,180,2013-03-27 18:15:00
1:35 PM,63.9,33.1,32,30.21,10.0,SSE,21.9,27.6,N/A,,Clear,150,2013-03-27 18:35:00
1:55 PM,65.8,34.7,32,30.20,10.0,SSE,21.9,29.9,N/A,,Clear,160,2013-03-27 18:55:00
2:15 PM,65.8,34.3,31,30.19,10.0,South,24.2,31.1,N/A,,Clear,170,2013-03-27 19:15:00
2:35 PM,65.8,34.0,31,30.18,10.0,SSE,16.1,27.6,N/A,,Clear,160,2013-03-27 19:35:00
2:55 PM,65.8,34.3,31,30.17,10.0,SSE,23.0,28.8,N/A,,Clear,160,2013-03-27 19:55:00
3:15 PM,65.8,34.5,31,30.15,10.0,South,23.0,27.6,N/A,,Clear,170,2013-03-27 20:15:00
3:35 PM,65.8,35.4,32,30.14,10.0,South,21.9,31.1,N/A,,Clear,180,2013-03-27 20:35:00
3:55 PM,66.0,35.2,32,30.13,10.0,SSE,17.3,28.8,N/A,,Clear,160,2013-03-27 20:55:00
4:15 PM,65.8,34.5,31,30.11,10.0,South,21.9,32.2,N/A,,Clear,170,2013-03-27 21:15:00
4:35 PM,66.4,35.1,31,30.10,10.0,South,24.2,32.2,N/A,,Clear,170,2013-03-27 21:35:00
4:55 PM,67.6,36.3,32,30.10,10.0,South,24.2,31.1,N/A,,Clear,170,2013-03-27 21:55:00
5:15 PM,66.6,36.0,32,30.10,10.0,South,23.0,29.9,N/A,,Clear,170,2013-03-27 22:15:00
5:35 PM,67.6,37.4,33,30.09,10.0,South,24.2,-,N/A,,Clear,170,2013-03-27 22:35:00
5:55 PM,66.2,36.1,33,30.09,10.0,SSE,20.7,29.9,N/A,,Clear,160,2013-03-27 22:55:00
6:15 PM,65.8,36.9,34,30.09,10.0,South,17.3,24.2,N/A,,Clear,170,2013-03-27 23:15:00
6:35 PM,65.8,37.6,35,30.08,10.0,South,17.3,23.0,N/A,,Clear,170,2013-03-27 23:35:00
6:55 PM,65.8,38.5,37,30.09,10.0,South,17.3,20.7,N/A,,Clear,170,2013-03-27 23:55:00
7:15 PM,65.8,40.5,39,30.10,10.0,SSE,13.8,-,N/A,,Clear,160,2013-03-28 00:15:00
7:35 PM,62.1,39.6,44,30.10,10.0,SSE,9.2,-,N/A,,Clear,150,2013-03-28 00:35:00
7:55 PM,58.3,39.7,50,30.10,10.0,SE,6.9,-,N/A,,Clear,140,2013-03-28 00:55:00
8:15 PM,57.7,40.5,53,30.11,10.0,SE,8.1,-,N/A,,Clear,140,2013-03-28 01:15:00
8:35 PM,55.8,40.5,56,30.11,10.0,SE,9.2,-,N/A,,Clear,140,2013-03-28 01:35:00
9:15 PM,53.2,39.4,59,30.12,10.0,ESE,5.8,-,N/A,,Clear,120,2013-03-28 02:15:00
9:35 PM,53.2,40.3,61,30.13,10.0,SE,6.9,-,N/A,,Clear,130,2013-03-28 02:35:00
9:55 PM,53.6,40.3,61,30.13,10.0,SE,8.1,-,N/A,,Clear,140,2013-03-28 02:55:00
10:15 PM,53.2,40.8,63,30.14,10.0,SE,6.9,-,N/A,,Clear,130,2013-03-28 03:15:00
10:35 PM,52.3,41.2,66,30.15,10.0,SE,6.9,-,N/A,,Clear,130,2013-03-28 03:35:00
10:55 PM,52.5,41.4,66,30.15,10.0,SE,6.9,-,N/A,,Clear,130,2013-03-28 03:55:00
11:15 PM,50.9,40.1,67,30.15,10.0,SE,8.1,-,N/A,,Clear,140,2013-03-28 04:15:00
11:35 PM,50.9,40.1,67,30.15,10.0,SE,6.9,-,N/A,,Clear,130,2013-03-28 04:35:00
11:55 PM,50.9,40.6,68,30.15,10.0,SE,8.1,-,N/A,,Clear,130,2013-03-28 04:55:00